createdAt,value
2023-04-04T00:01:42.930Z,80.02
2023-04-04T00:04:09.372Z,80.98
2023-04-04T00:06:36.520Z,81.29
2023-04-04T00:09:02.911Z,80.77
2023-04-04T00:11:29.294Z,82.12
2023-04-04T00:13:55.884Z,81.26
2023-04-04T00:16:22.441Z,81.06
2023-04-04T00:18:48.899Z,81.29
2023-04-04T00:21:15.390Z,81.23
2023-04-04T00:23:41.718Z,81.70
2023-04-04T00:26:08.064Z,81.87
2023-04-04T00:28:34.471Z,82.17
2023-04-04T00:31:01.545Z,81.44
2023-04-04T00:33:27.971Z,82.27
2023-04-04T00:35:54.761Z,81.77
2023-04-04T00:38:21.188Z,82.74
2023-04-04T00:40:50.959Z,81.32
2023-04-04T00:43:18.608Z,81.00
2023-04-04T00:45:45.114Z,81.16
2023-04-04T00:48:12.039Z,79.80
2023-04-04T00:50:38.815Z,80.40
2023-04-04T00:53:05.465Z,80.05
2023-04-04T00:55:32.453Z,79.61
2023-04-04T00:57:59.726Z,80.39
2023-04-04T01:00:26.512Z,80.12
2023-04-04T01:02:53.307Z,79.68
2023-04-04T01:05:19.801Z,79.14
2023-04-04T01:07:46.836Z,79.48
2023-04-04T01:10:13.312Z,79.02
2023-04-04T01:12:41.622Z,77.78
2023-04-04T01:15:08.639Z,78.15
2023-04-04T01:17:35.841Z,78.00
2023-04-04T01:20:15.772Z,77.37
2023-04-04T01:22:44.298Z,77.68
2023-04-04T01:25:11.465Z,77.30
2023-04-04T01:27:38.866Z,78.01
2023-04-04T01:30:07.430Z,77.96
2023-04-04T01:32:52.772Z,78.68
2023-04-04T01:35:33.087Z,78.56
2023-04-04T01:38:37.396Z,79.23
2023-04-04T01:41:08.157Z,79.49
2023-04-04T01:43:34.922Z,77.92
2023-04-04T01:46:02.016Z,78.89
2023-04-04T01:48:28.846Z,78.58
2023-04-04T01:50:55.290Z,78.99
2023-04-04T01:53:21.990Z,78.00
2023-04-04T01:55:48.479Z,77.72
2023-04-04T01:58:15.560Z,77.11
2023-04-04T02:00:42.185Z,76.14
2023-04-04T02:03:09.278Z,76.80
2023-04-04T02:05:35.827Z,77.22
2023-04-04T02:08:03.041Z,75.79
2023-04-04T02:10:30.170Z,75.75
2023-04-04T02:12:56.515Z,76.12
2023-04-04T02:15:23.806Z,75.63
2023-04-04T02:17:50.470Z,75.30
2023-04-04T02:20:19.296Z,76.13
2023-04-04T02:22:53.700Z,76.34
2023-04-04T02:25:24.316Z,76.25
2023-04-04T02:27:51.110Z,76.05
2023-04-04T02:30:17.753Z,76.66
2023-04-04T02:32:44.208Z,75.86
2023-04-04T02:35:10.738Z,76.02
2023-04-04T02:37:37.143Z,76.22
2023-04-04T02:40:03.949Z,75.16
2023-04-04T02:42:30.412Z,75.74
2023-04-04T02:44:56.839Z,74.55
2023-04-04T02:47:23.204Z,74.86
2023-04-04T02:49:49.586Z,74.08
2023-04-04T02:52:16.279Z,74.03
2023-04-04T02:54:42.953Z,73.96
2023-04-04T02:57:09.339Z,74.49
2023-04-04T02:59:35.734Z,74.07
2023-04-04T03:02:02.195Z,74.42
2023-04-04T03:04:29.290Z,74.10
2023-04-04T03:06:55.686Z,73.37
2023-04-04T03:09:22.308Z,74.05
2023-04-04T03:11:49.866Z,73.98
2023-04-04T03:14:16.667Z,74.63
2023-04-04T03:16:43.696Z,74.15
2023-04-04T03:19:10.287Z,74.56
2023-04-04T03:21:36.754Z,73.95
2023-04-04T03:24:03.299Z,74.24
2023-04-04T03:26:29.857Z,74.68
2023-04-04T03:28:56.631Z,75.01
2023-04-04T03:31:23.118Z,75.11
2023-04-04T03:33:49.552Z,75.33
2023-04-04T03:36:16.672Z,76.90
2023-04-04T03:38:43.211Z,75.51
2023-04-04T03:41:09.707Z,75.95
2023-04-04T03:43:36.223Z,75.17
2023-04-04T03:46:04.219Z,74.84
2023-04-04T03:48:31.567Z,74.92
2023-04-04T03:50:58.348Z,74.06
2023-04-04T03:53:25.583Z,74.69
2023-04-04T03:55:53.535Z,74.76
2023-04-04T03:58:20.441Z,76.45
2023-04-04T04:00:46.910Z,76.00
2023-04-04T04:03:15.480Z,76.65
2023-04-04T04:05:43.259Z,75.40
2023-04-04T04:08:09.692Z,75.65
2023-04-04T04:10:36.266Z,76.01
2023-04-04T04:13:02.901Z,76.36
2023-04-04T04:15:29.332Z,76.19
2023-04-04T04:17:55.936Z,77.42
2023-04-04T04:20:22.862Z,77.61
2023-04-04T04:22:50.184Z,77.55
2023-04-04T04:25:17.861Z,77.08
2023-04-04T04:27:45.180Z,77.89
2023-04-04T04:30:12.897Z,77.52
2023-04-04T04:32:39.431Z,77.28
2023-04-04T04:35:06.786Z,78.00
2023-04-04T04:37:33.451Z,78.01
2023-04-04T04:40:01.762Z,77.89
2023-04-04T04:42:29.330Z,77.93
2023-04-04T04:44:55.980Z,78.39
2023-04-04T04:47:22.629Z,77.58
2023-04-04T04:49:49.679Z,77.66
2023-04-04T04:52:16.130Z,78.57
2023-04-04T04:54:43.792Z,77.67
2023-04-04T04:57:10.665Z,77.21
2023-04-04T04:59:37.231Z,78.58
2023-04-04T05:02:03.766Z,77.56
2023-04-04T05:04:30.329Z,77.22
2023-04-04T05:06:56.851Z,77.46
2023-04-04T05:09:23.601Z,77.89
2023-04-04T05:11:49.995Z,77.99
2023-04-04T05:14:16.334Z,77.93
2023-04-04T05:16:42.828Z,77.22
2023-04-04T05:19:09.252Z,78.03
2023-04-04T05:21:36.383Z,77.79
2023-04-04T05:24:03.142Z,76.30
2023-04-04T05:26:29.613Z,74.91
2023-04-04T05:28:56.132Z,71.76
2023-04-04T05:31:22.635Z,71.43
2023-04-04T05:33:49.050Z,70.91
2023-04-04T05:36:16.031Z,68.60
2023-04-04T05:38:42.523Z,68.53
2023-04-04T05:41:08.935Z,67.89
2023-04-04T05:43:35.940Z,66.83
2023-04-04T05:46:02.515Z,66.56
2023-04-04T05:48:28.987Z,67.25
2023-04-04T05:50:55.538Z,67.95
2023-04-04T05:53:22.384Z,67.97
2023-04-04T05:55:53.280Z,69.12
2023-04-04T05:58:19.673Z,68.99
2023-04-04T06:00:46.042Z,68.27
2023-04-04T06:03:12.718Z,68.32
2023-04-04T06:05:39.267Z,68.38
2023-04-04T06:08:06.438Z,69.11
2023-04-04T06:10:32.813Z,69.70
2023-04-04T06:12:59.247Z,70.36
2023-04-04T06:15:25.672Z,69.96
2023-04-04T06:17:55.008Z,69.77
2023-04-04T06:20:22.641Z,69.95
2023-04-04T06:22:49.462Z,70.22
2023-04-04T06:25:15.962Z,69.48
2023-04-04T06:27:42.534Z,68.81
2023-04-04T06:30:11.714Z,69.34
2023-04-04T06:32:38.671Z,69.19
2023-04-04T06:35:05.981Z,68.68
2023-04-04T06:37:32.328Z,68.03
2023-04-04T06:39:58.717Z,67.53
2023-04-04T06:42:25.052Z,66.44
2023-04-04T06:44:51.440Z,66.61
2023-04-04T06:47:17.988Z,65.93
2023-04-04T06:49:44.362Z,66.90
2023-04-04T06:52:11.074Z,66.87
2023-04-04T06:54:37.927Z,63.77
2023-04-04T06:57:04.692Z,63.80
2023-04-04T06:59:31.057Z,64.98
2023-04-04T07:01:57.923Z,63.05
2023-04-04T07:04:24.498Z,63.94
2023-04-04T07:06:50.848Z,62.45
2023-04-04T07:09:28.006Z,63.08
2023-04-04T07:11:55.372Z,63.44
2023-04-04T07:14:25.160Z,63.18
2023-04-04T07:16:52.366Z,63.00
2023-04-04T07:19:18.882Z,64.01
2023-04-04T07:21:45.239Z,62.80
2023-04-04T07:24:11.680Z,61.73
2023-04-04T07:26:38.070Z,61.46
2023-04-04T07:29:04.458Z,63.08
2023-04-04T07:31:30.901Z,62.46
2023-04-04T07:33:57.400Z,61.73
2023-04-04T07:36:23.754Z,60.99
2023-04-04T07:38:50.154Z,60.33
2023-04-04T07:41:16.771Z,62.09
2023-04-04T07:43:43.302Z,61.56
2023-04-04T07:46:09.772Z,60.69
2023-04-04T07:48:36.449Z,59.48
2023-04-04T07:51:04.486Z,59.98
2023-04-04T07:53:31.039Z,59.98
2023-04-04T07:55:57.413Z,60.18
2023-04-04T07:58:23.938Z,59.74
2023-04-04T08:00:50.280Z,58.17
2023-04-04T08:03:17.791Z,58.20
2023-04-04T08:05:44.312Z,58.48
2023-04-04T08:08:10.827Z,56.46
2023-04-04T08:10:37.261Z,57.11
2023-04-04T08:13:05.755Z,58.59
2023-04-04T08:15:32.095Z,56.02
2023-04-04T08:17:58.447Z,57.82
2023-04-04T08:20:24.841Z,55.77
2023-04-04T08:22:51.225Z,55.58
2023-04-04T08:25:18.526Z,56.94
2023-04-04T08:27:45.518Z,56.37
2023-04-04T08:30:15.521Z,54.94
2023-04-04T08:32:44.195Z,55.99
2023-04-04T08:35:11.098Z,54.55
2023-04-04T08:37:38.358Z,55.14
2023-04-04T08:40:06.651Z,54.47
2023-04-04T08:42:36.180Z,54.73
2023-04-04T08:45:04.800Z,55.57
2023-04-04T08:47:36.242Z,55.34
2023-04-04T08:50:06.824Z,54.57
2023-04-04T08:52:35.125Z,53.65
2023-04-04T08:55:06.790Z,53.90
2023-04-04T08:57:33.461Z,52.34
2023-04-04T09:00:00.457Z,55.11
2023-04-04T09:02:34.043Z,51.76
2023-04-04T09:05:06.730Z,53.61
2023-04-04T09:07:38.606Z,50.80
2023-04-04T09:10:08.673Z,50.86
2023-04-04T09:12:37.391Z,52.11
2023-04-04T09:15:04.214Z,51.85
2023-04-04T09:17:30.598Z,50.04
2023-04-04T09:20:03.077Z,52.49
2023-04-04T09:22:29.456Z,51.53
2023-04-04T09:24:56.597Z,51.00
2023-04-04T09:27:22.962Z,50.50
2023-04-04T09:29:49.843Z,49.75
2023-04-04T09:32:17.279Z,49.76
2023-04-04T09:34:45.171Z,49.55
2023-04-04T09:37:14.282Z,50.00
2023-04-04T09:39:41.921Z,49.97
2023-04-04T09:42:08.821Z,49.54
2023-04-04T09:44:36.906Z,49.63
2023-04-04T09:50:01.811Z,49.78
2023-04-04T09:52:33.027Z,50.19
2023-04-04T09:55:00.868Z,49.56
2023-04-04T09:57:31.835Z,49.21
2023-04-04T10:00:00.738Z,49.51
2023-04-04T10:02:31.001Z,49.50
2023-04-04T10:05:06.005Z,49.81
2023-04-04T10:07:33.795Z,50.43
2023-04-04T10:10:08.000Z,50.60
2023-04-04T10:12:34.970Z,48.56
2023-04-04T10:15:02.246Z,49.26
2023-04-04T10:17:37.295Z,48.17
2023-04-04T10:20:06.316Z,47.38
2023-04-04T10:22:33.927Z,48.98
2023-04-04T10:25:00.588Z,48.53
2023-04-04T10:27:27.910Z,47.35
2023-04-04T10:29:54.728Z,48.12
2023-04-04T10:32:32.895Z,48.09
2023-04-04T10:35:10.891Z,48.32
2023-04-04T10:37:43.088Z,47.70
2023-04-04T10:40:15.272Z,48.97
2023-04-04T10:42:47.470Z,48.39
2023-04-04T10:45:21.161Z,47.06
2023-04-04T10:47:49.024Z,47.78
2023-04-04T10:50:15.596Z,46.83
2023-04-04T10:52:46.116Z,47.53
2023-04-04T10:55:14.937Z,47.76
2023-04-04T10:57:47.705Z,47.55
2023-04-04T11:00:17.689Z,45.82
2023-04-04T11:02:48.634Z,47.21
2023-04-04T11:06:02.596Z,46.66
2023-04-04T11:08:29.150Z,47.86
2023-04-04T11:10:57.796Z,45.76
2023-04-04T11:13:32.484Z,46.00
2023-04-04T11:16:08.026Z,47.02
2023-04-04T11:18:40.346Z,47.00
2023-04-04T11:21:08.759Z,47.74
2023-04-04T11:23:47.511Z,46.87
2023-04-04T11:26:17.634Z,46.81
2023-04-04T11:28:45.940Z,46.90
2023-04-04T11:31:24.102Z,46.82
2023-04-04T11:34:14.175Z,47.70
2023-04-04T11:36:41.458Z,48.68
2023-04-04T11:39:12.446Z,47.67
2023-04-04T11:42:03.862Z,45.83
2023-04-04T11:44:31.853Z,46.53
2023-04-04T11:47:11.853Z,45.69
2023-04-04T11:49:40.913Z,45.52
2023-04-04T11:52:09.970Z,46.58
2023-04-04T11:54:38.441Z,45.62
2023-04-04T11:57:15.296Z,45.17
2023-04-04T11:59:52.178Z,46.44
2023-04-04T12:02:27.404Z,45.26
2023-04-04T12:04:54.370Z,45.88
2023-04-04T12:07:20.896Z,47.23
2023-04-04T12:09:48.012Z,45.88
2023-04-04T12:12:18.599Z,46.07
2023-04-04T12:14:45.198Z,43.43
2023-04-04T12:17:11.629Z,46.01
2023-04-04T12:19:39.939Z,44.90
2023-04-04T12:22:08.226Z,45.57
2023-04-04T12:24:35.977Z,44.80
2023-04-04T12:27:03.412Z,45.53
2023-04-04T12:29:36.357Z,44.81
2023-04-04T12:32:04.034Z,46.73
2023-04-04T12:34:33.109Z,44.79
2023-04-04T12:37:01.785Z,44.84
2023-04-04T12:39:29.110Z,44.58
2023-04-04T12:41:59.583Z,44.55
2023-04-04T12:44:35.989Z,45.14
2023-04-04T12:47:05.208Z,43.83
2023-04-04T12:49:40.228Z,43.50
2023-04-04T12:52:08.946Z,43.20
2023-04-04T12:54:39.216Z,43.54
2023-04-04T12:57:07.966Z,42.15
2023-04-04T12:59:36.206Z,43.67
2023-04-04T13:02:12.435Z,44.19
2023-04-04T13:04:40.473Z,43.82
2023-04-04T13:07:27.540Z,42.37
2023-04-04T13:09:56.520Z,44.54
2023-04-04T13:12:23.705Z,42.99
2023-04-04T13:15:00.800Z,43.74
2023-04-04T13:17:41.725Z,42.31
2023-04-04T13:20:09.047Z,42.71
2023-04-04T13:22:36.782Z,42.68
2023-04-04T13:25:08.073Z,42.94
2023-04-04T13:27:35.362Z,43.05
2023-04-04T13:30:02.255Z,43.74
2023-04-04T13:32:29.889Z,42.77
2023-04-04T13:34:56.406Z,43.87
2023-04-04T13:37:22.896Z,43.39
2023-04-04T13:39:49.275Z,44.00
2023-04-04T13:42:15.855Z,43.02
2023-04-04T13:44:42.196Z,44.66
2023-04-04T13:47:08.575Z,42.51
2023-04-04T13:49:34.979Z,40.69
2023-04-04T13:52:01.397Z,40.33
2023-04-04T13:54:27.738Z,41.33
2023-04-04T13:56:55.422Z,40.97
2023-04-04T13:59:22.281Z,41.52
2023-04-04T14:01:48.867Z,39.96
2023-04-04T14:04:23.214Z,40.74
2023-04-04T14:06:50.387Z,41.29
2023-04-04T14:09:16.856Z,42.10
2023-04-04T14:11:43.614Z,41.65
2023-04-04T14:14:10.062Z,40.60
2023-04-04T14:16:36.597Z,41.14
2023-04-04T14:19:03.183Z,40.74
2023-04-04T14:21:29.567Z,42.84
2023-04-04T14:23:55.961Z,42.48
2023-04-04T14:26:22.291Z,42.29
2023-04-04T14:28:48.760Z,40.92
2023-04-04T14:31:15.482Z,41.16
2023-04-04T14:33:42.004Z,39.92
2023-04-04T14:36:08.387Z,41.55
2023-04-04T14:38:34.772Z,41.11
2023-04-04T14:41:02.019Z,42.19
2023-04-04T14:43:28.523Z,42.11
2023-04-04T14:45:55.032Z,41.61
2023-04-04T14:48:21.459Z,41.18
2023-04-04T14:50:47.882Z,40.45
2023-04-04T14:53:14.292Z,40.29
2023-04-04T14:55:40.938Z,40.36
2023-04-04T14:58:08.148Z,40.14
2023-04-04T15:00:34.650Z,40.59
2023-04-04T15:03:01.543Z,40.86
2023-04-04T15:05:28.210Z,42.24
2023-04-04T15:07:55.705Z,42.60
2023-04-04T15:10:22.820Z,41.56
2023-04-04T15:12:49.211Z,41.84
2023-04-04T15:15:15.689Z,42.62
2023-04-04T15:17:42.267Z,41.58
2023-04-04T15:20:09.434Z,41.22
2023-04-04T15:22:36.326Z,41.15
2023-04-04T15:25:02.761Z,42.04
2023-04-04T15:27:29.144Z,40.53
2023-04-04T15:29:55.501Z,42.06
2023-04-04T15:32:21.977Z,42.83
2023-04-04T15:34:48.323Z,42.18
2023-04-04T15:37:15.472Z,41.60
2023-04-04T15:39:51.835Z,42.29
2023-04-04T15:42:19.904Z,41.09
2023-04-04T15:44:46.532Z,42.67
2023-04-04T15:47:13.185Z,42.51
2023-04-04T15:49:39.751Z,42.88
2023-04-04T15:52:06.368Z,42.73
2023-04-04T15:54:32.791Z,42.14
2023-04-04T15:56:59.225Z,42.05
2023-04-04T15:59:26.305Z,42.75
2023-04-04T16:01:52.823Z,42.33
2023-04-04T16:04:19.306Z,43.09
2023-04-04T16:06:45.746Z,43.74
2023-04-04T16:09:12.131Z,41.94
2023-04-04T16:11:38.855Z,41.84
2023-04-04T16:14:05.975Z,43.52
2023-04-04T16:16:32.441Z,42.39
2023-04-04T16:18:58.885Z,43.43
2023-04-04T16:21:26.422Z,42.38
2023-04-04T16:23:54.749Z,42.28
2023-04-04T16:26:22.018Z,42.31
2023-04-04T16:28:48.383Z,42.50
2023-04-04T16:31:15.712Z,42.02
2023-04-04T16:33:42.130Z,43.38
2023-04-04T16:36:08.705Z,42.24
2023-04-04T16:38:35.071Z,43.47
2023-04-04T16:41:01.980Z,42.39
2023-04-04T16:43:28.346Z,42.42
2023-04-04T16:45:54.682Z,43.04
2023-04-04T16:48:21.140Z,44.00
2023-04-04T16:50:47.603Z,44.66
2023-04-04T16:53:14.166Z,44.16
2023-04-04T16:55:40.644Z,45.50
2023-04-04T16:58:07.032Z,44.62
2023-04-04T17:00:33.552Z,44.63
2023-04-04T17:03:00.012Z,44.85
2023-04-04T17:05:27.225Z,46.24
2023-04-04T17:07:53.686Z,46.81
2023-04-04T17:10:20.417Z,45.43
2023-04-04T17:12:47.120Z,46.49
2023-04-04T17:15:15.577Z,45.92
2023-04-04T17:17:42.995Z,46.17
2023-04-04T17:20:09.927Z,46.45
2023-04-04T17:22:36.350Z,45.77
2023-04-04T17:25:03.515Z,45.30
2023-04-04T17:27:30.566Z,47.06
2023-04-04T17:29:57.145Z,46.34
2023-04-04T17:32:23.566Z,47.98
2023-04-04T17:34:49.902Z,48.79
2023-04-04T17:37:16.238Z,48.39
2023-04-04T17:39:45.226Z,50.37
2023-04-04T17:42:12.234Z,51.58
2023-04-04T17:44:38.661Z,51.58
2023-04-04T17:47:05.228Z,52.46
2023-04-04T17:49:31.654Z,53.60
2023-04-04T17:51:58.238Z,54.60
2023-04-04T17:54:26.743Z,56.34
2023-04-04T17:56:53.231Z,56.58
2023-04-04T17:59:19.758Z,59.44
2023-04-04T18:01:46.632Z,60.61
2023-04-04T18:04:13.137Z,61.16
2023-04-04T18:06:41.522Z,60.26
2023-04-04T18:09:09.987Z,59.73
2023-04-04T18:11:37.068Z,59.85
2023-04-04T18:14:04.137Z,60.44
2023-04-04T18:16:38.322Z,60.89
2023-04-04T18:19:06.453Z,61.70
2023-04-04T18:21:32.941Z,65.80
2023-04-04T18:23:59.364Z,63.82
2023-04-04T18:26:25.703Z,65.77
2023-04-04T18:28:52.080Z,66.81
2023-04-04T18:31:18.612Z,67.66
2023-04-04T18:33:45.316Z,67.68
2023-04-04T18:36:11.909Z,67.25
2023-04-04T18:38:38.360Z,67.03
2023-04-04T18:41:05.723Z,67.68
2023-04-04T18:43:32.295Z,67.66
2023-04-04T18:45:59.526Z,69.38
2023-04-04T18:48:27.113Z,71.45
2023-04-04T18:50:53.539Z,71.68
2023-04-04T18:53:19.889Z,71.85
2023-04-04T18:55:48.939Z,73.52
2023-04-04T18:58:15.712Z,74.70
2023-04-04T19:00:42.382Z,74.04
2023-04-04T19:03:10.478Z,74.52
2023-04-04T19:05:38.581Z,75.12
2023-04-04T19:08:08.739Z,73.90
2023-04-04T19:10:36.083Z,76.06
2023-04-04T19:13:02.713Z,77.83
2023-04-04T19:15:29.093Z,77.86
2023-04-04T19:17:55.580Z,77.35
2023-04-04T19:20:22.579Z,76.90
2023-04-04T19:22:49.599Z,75.75
2023-04-04T19:25:16.918Z,74.60
2023-04-04T19:27:43.350Z,74.42
2023-04-04T19:30:35.593Z,73.97
2023-04-04T19:33:03.195Z,74.04
2023-04-04T19:35:54.752Z,74.69
2023-04-04T19:38:23.792Z,75.88
2023-04-04T19:41:03.276Z,75.76
2023-04-04T19:43:30.529Z,75.62
2023-04-04T19:45:58.853Z,75.52
2023-04-04T19:48:44.161Z,74.53
2023-04-04T19:51:32.177Z,74.74
2023-04-04T19:53:59.882Z,75.32
2023-04-04T19:56:27.834Z,74.38
2023-04-04T19:58:56.919Z,74.25
2023-04-04T20:01:28.065Z,74.32
2023-04-04T20:03:55.802Z,73.08
2023-04-04T20:06:27.848Z,72.91
2023-04-04T20:09:32.418Z,74.12
2023-04-04T20:11:58.766Z,73.81
2023-04-04T20:14:25.418Z,72.53
2023-04-04T20:16:52.368Z,73.46
2023-04-04T20:19:20.042Z,72.47
2023-04-04T20:21:48.633Z,72.56
2023-04-04T20:24:17.656Z,72.76
2023-04-04T20:26:55.171Z,72.92
2023-04-04T20:29:25.494Z,73.44
2023-04-04T20:32:02.495Z,72.88
2023-04-04T20:34:39.012Z,73.39
2023-04-04T20:37:08.901Z,73.73
2023-04-04T20:39:45.989Z,73.58
2023-04-04T20:42:19.691Z,73.60
2023-04-04T20:44:46.593Z,73.42
2023-04-04T20:47:40.796Z,73.79
2023-04-04T20:50:16.181Z,72.94
2023-04-04T20:53:01.738Z,72.49
2023-04-04T20:55:30.303Z,72.21
2023-04-04T20:58:19.733Z,72.47
2023-04-04T21:00:46.182Z,72.31
2023-04-04T21:03:26.613Z,72.60
2023-04-04T21:05:56.742Z,74.25
2023-04-04T21:08:24.032Z,75.40
2023-04-04T21:10:54.974Z,76.48
2023-04-04T21:13:27.298Z,75.97
2023-04-04T21:16:01.966Z,76.86
2023-04-04T21:18:31.686Z,76.51
2023-04-04T21:21:18.918Z,77.15
2023-04-04T21:23:48.480Z,77.26
2023-04-04T21:26:53.712Z,75.72
2023-04-04T21:29:24.997Z,77.32
2023-04-04T21:31:53.567Z,77.29
2023-04-04T21:34:21.910Z,77.65
2023-04-04T21:36:50.308Z,78.84
2023-04-04T21:39:24.796Z,79.44
2023-04-04T21:41:53.733Z,78.22
2023-04-04T21:44:20.164Z,78.11
2023-04-04T21:46:46.703Z,76.29
2023-04-04T21:49:13.164Z,77.57
2023-04-04T21:51:39.641Z,76.39
2023-04-04T21:54:06.306Z,77.40
2023-04-04T21:56:32.898Z,74.80
2023-04-04T21:59:01.155Z,76.12
2023-04-04T22:01:28.063Z,77.68
2023-04-04T22:03:54.496Z,78.95
2023-04-04T22:06:26.104Z,79.75
2023-04-04T22:08:54.095Z,80.36
2023-04-04T22:11:20.543Z,80.70
2023-04-04T22:13:48.318Z,81.45
2023-04-04T22:16:16.863Z,82.09
2023-04-04T22:18:51.888Z,82.78
2023-04-04T22:21:25.726Z,82.53
2023-04-04T22:23:53.937Z,82.68
2023-04-04T22:26:28.943Z,82.83
2023-04-04T22:28:56.790Z,83.64
2023-04-04T22:31:23.624Z,84.04
2023-04-04T22:33:51.209Z,84.99
2023-04-04T22:36:18.584Z,85.32
2023-04-04T22:38:45.039Z,85.29
2023-04-04T22:41:11.814Z,85.47
2023-04-04T22:43:38.235Z,86.13
2023-04-04T22:46:04.695Z,86.03
2023-04-04T22:48:31.103Z,86.63
2023-04-04T22:50:58.753Z,87.13
2023-04-04T22:53:25.834Z,87.80
2023-04-04T22:55:53.810Z,87.97
2023-04-04T22:58:21.563Z,88.51
2023-04-04T23:00:48.693Z,87.82
2023-04-04T23:03:15.904Z,87.81
2023-04-04T23:05:42.410Z,86.91
2023-04-04T23:08:08.818Z,86.14
2023-04-04T23:10:35.568Z,83.24
2023-04-04T23:13:01.927Z,84.01
2023-04-04T23:15:28.777Z,82.39
2023-04-04T23:17:55.600Z,84.07
2023-04-04T23:20:22.238Z,83.97
2023-04-04T23:22:48.829Z,83.98
2023-04-04T23:25:15.309Z,84.49
2023-04-04T23:27:41.728Z,84.60
2023-04-04T23:30:09.711Z,85.62
2023-04-04T23:32:36.468Z,86.82
2023-04-04T23:35:02.958Z,87.02
2023-04-04T23:37:29.328Z,88.01
2023-04-04T23:39:55.758Z,87.71
2023-04-04T23:42:22.789Z,88.07
2023-04-04T23:44:49.223Z,88.28
2023-04-04T23:47:16.096Z,88.14
2023-04-04T23:49:42.685Z,89.19
2023-04-04T23:52:09.134Z,89.19
2023-04-04T23:54:35.747Z,89.65
2023-04-04T23:57:02.479Z,90.21
2023-04-04T23:59:28.987Z,89.54
